createdAt,value
2018-02-18T00:00:43.296Z,5.53
2018-02-18T00:03:10.932Z,4.83
2018-02-18T00:05:38.457Z,5.47
2018-02-18T00:08:05.994Z,6.03
2018-02-18T00:10:33.575Z,6.30
2018-02-18T00:13:01.094Z,5.93
2018-02-18T00:15:28.666Z,5.90
2018-02-18T00:17:56.212Z,6.93
2018-02-18T00:20:23.727Z,6.10
2018-02-18T00:22:51.248Z,5.43
2018-02-18T00:25:19.132Z,6.30
2018-02-18T00:27:46.630Z,5.30
2018-02-18T00:30:14.245Z,4.83
2018-02-18T00:32:41.747Z,5.00
2018-02-18T00:35:09.250Z,5.23
2018-02-18T00:37:36.738Z,5.67
2018-02-18T00:40:04.302Z,5.57
2018-02-18T00:42:31.823Z,5.30
2018-02-18T00:44:59.333Z,5.57
2018-02-18T00:47:26.860Z,6.00
2018-02-18T00:49:54.384Z,5.30
2018-02-18T00:52:21.866Z,5.27
2018-02-18T00:54:49.346Z,5.20
2018-02-18T00:57:16.826Z,5.97
2018-02-18T00:59:44.352Z,6.03
2018-02-18T01:02:11.869Z,5.63
2018-02-18T01:04:39.374Z,5.53
2018-02-18T01:07:06.894Z,6.20
2018-02-18T01:09:34.389Z,6.87
2018-02-18T01:12:01.902Z,6.50
2018-02-18T01:14:29.412Z,5.70
2018-02-18T01:16:56.950Z,6.30
2018-02-18T01:19:24.440Z,5.53
2018-02-18T01:21:51.947Z,5.43
2018-02-18T01:24:19.445Z,5.17
2018-02-18T01:26:46.953Z,5.10
2018-02-18T01:29:14.466Z,5.57
2018-02-18T01:31:41.972Z,5.07
2018-02-18T01:34:09.479Z,4.73
2018-02-18T01:36:37.003Z,5.23
2018-02-18T01:39:04.699Z,5.47
2018-02-18T01:41:32.198Z,5.27
2018-02-18T01:43:59.749Z,5.90
2018-02-18T01:46:27.251Z,5.60
2018-02-18T01:48:54.789Z,5.43
2018-02-18T01:51:22.290Z,5.33
2018-02-18T01:53:50.645Z,5.57
2018-02-18T01:56:18.192Z,5.57
2018-02-18T01:58:46.615Z,5.87
2018-02-18T02:01:14.154Z,5.13
2018-02-18T02:03:41.675Z,5.47
2018-02-18T02:06:09.195Z,5.73
2018-02-18T02:08:36.688Z,6.00
2018-02-18T02:11:04.233Z,5.00
2018-02-18T02:13:31.800Z,5.83
2018-02-18T02:15:59.367Z,5.40
2018-02-18T02:18:26.918Z,5.77
2018-02-18T02:20:54.401Z,5.13
2018-02-18T02:23:21.899Z,5.80
2018-02-18T02:25:49.428Z,5.67
2018-02-18T02:28:16.955Z,5.53
2018-02-18T02:30:44.481Z,6.63
2018-02-18T02:33:11.983Z,5.67
2018-02-18T02:35:39.512Z,4.87
2018-02-18T02:38:07.071Z,5.47
2018-02-18T02:40:34.600Z,5.60
2018-02-18T02:43:02.229Z,5.87
2018-02-18T02:45:29.750Z,5.57
2018-02-18T02:47:57.308Z,5.30
2018-02-18T02:50:24.810Z,5.17
2018-02-18T02:52:52.326Z,5.30
2018-02-18T02:55:19.870Z,5.43
2018-02-18T02:57:47.421Z,5.77
2018-02-18T03:00:14.928Z,6.03
2018-02-18T03:02:42.454Z,6.87
2018-02-18T03:05:09.943Z,5.90
2018-02-18T03:07:37.473Z,6.37
2018-02-18T03:10:05.020Z,6.10
2018-02-18T03:12:32.529Z,5.73
2018-02-18T03:15:00.048Z,6.40
2018-02-18T03:17:27.525Z,5.77
2018-02-18T03:19:55.011Z,6.13
2018-02-18T03:22:22.596Z,6.30
2018-02-18T03:24:50.092Z,6.43
2018-02-18T03:27:17.588Z,5.70
2018-02-18T03:29:45.109Z,6.07
2018-02-18T03:32:12.622Z,5.40
2018-02-18T03:34:40.124Z,6.30
2018-02-18T03:37:07.657Z,5.10
2018-02-18T03:39:35.812Z,5.23
2018-02-18T03:42:03.306Z,5.57
2018-02-18T03:44:30.841Z,5.20
2018-02-18T03:46:58.438Z,5.93
2018-02-18T03:49:25.968Z,5.23
2018-02-18T03:51:53.474Z,5.80
2018-02-18T03:54:21.015Z,6.47
2018-02-18T03:56:48.529Z,5.13
2018-02-18T03:59:16.120Z,6.03
2018-02-18T04:01:43.614Z,5.40
2018-02-18T04:04:11.090Z,5.93
2018-02-18T04:06:38.602Z,5.33
2018-02-18T04:09:06.147Z,6.30
2018-02-18T04:11:33.689Z,6.17
2018-02-18T04:14:01.236Z,5.93
2018-02-18T04:16:28.752Z,5.80
2018-02-18T04:18:56.287Z,5.07
2018-02-18T04:21:23.786Z,5.90
2018-02-18T04:23:51.266Z,5.70
2018-02-18T04:26:18.857Z,6.23
2018-02-18T04:28:46.396Z,6.33
2018-02-18T04:31:14.060Z,5.70
2018-02-18T04:33:41.600Z,5.77
2018-02-18T04:36:09.138Z,6.00
2018-02-18T04:38:36.658Z,5.60
2018-02-18T04:41:04.142Z,6.30
2018-02-18T04:43:31.642Z,5.60
2018-02-18T04:45:59.244Z,5.73
2018-02-18T04:48:26.742Z,5.40
2018-02-18T04:50:54.276Z,6.00
2018-02-18T04:53:21.822Z,5.43
2018-02-18T04:55:49.368Z,5.23
2018-02-18T04:58:16.897Z,5.87
2018-02-18T05:00:44.444Z,5.67
2018-02-18T05:03:11.989Z,6.33
2018-02-18T05:05:39.493Z,5.30
2018-02-18T05:08:07.658Z,5.50
2018-02-18T05:10:35.175Z,5.90
2018-02-18T05:13:02.654Z,6.27
2018-02-18T05:15:30.201Z,5.37
2018-02-18T05:17:57.697Z,5.10
2018-02-18T05:20:25.220Z,5.87
2018-02-18T05:22:52.740Z,5.00
2018-02-18T05:25:20.274Z,5.60
2018-02-18T05:27:47.805Z,5.00
2018-02-18T05:30:15.302Z,5.57
2018-02-18T05:32:42.862Z,6.20
2018-02-18T05:35:10.364Z,4.97
2018-02-18T05:37:37.874Z,4.80
2018-02-18T05:40:05.606Z,5.60
2018-02-18T05:42:33.102Z,5.30
2018-02-18T05:45:02.543Z,5.33
2018-02-18T05:47:30.095Z,5.17
2018-02-18T05:49:57.658Z,5.13
2018-02-18T05:52:25.156Z,5.70
2018-02-18T05:54:52.824Z,5.90
2018-02-18T05:57:20.295Z,5.03
2018-02-18T05:59:47.821Z,4.97
2018-02-18T06:02:15.380Z,4.93
2018-02-18T06:04:42.928Z,5.63
2018-02-18T06:07:10.443Z,5.70
2018-02-18T06:09:38.045Z,4.97
2018-02-18T06:12:05.553Z,5.10
2018-02-18T06:14:33.162Z,4.83
2018-02-18T06:17:00.673Z,5.07
2018-02-18T06:19:28.234Z,5.07
2018-02-18T06:21:55.767Z,5.07
2018-02-18T06:24:23.307Z,5.87
2018-02-18T06:26:51.951Z,5.43
2018-02-18T06:29:19.605Z,5.87
2018-02-18T06:31:47.110Z,5.43
2018-02-18T06:34:14.628Z,4.83
2018-02-18T06:36:42.117Z,5.63
2018-02-18T06:39:09.673Z,5.30
2018-02-18T06:41:37.167Z,5.17
2018-02-18T06:44:04.714Z,5.97
2018-02-18T06:46:32.218Z,6.30
2018-02-18T06:48:59.711Z,5.20
2018-02-18T06:51:27.196Z,5.33
2018-02-18T06:53:54.937Z,5.97
2018-02-18T06:56:22.418Z,5.60
2018-02-18T06:58:49.949Z,5.97
2018-02-18T07:01:17.636Z,5.43
2018-02-18T07:03:45.258Z,5.77
2018-02-18T07:06:12.790Z,5.47
2018-02-18T07:08:41.972Z,5.80
2018-02-18T07:11:09.588Z,6.10
2018-02-18T07:13:37.073Z,5.83
2018-02-18T07:16:04.605Z,5.60
2018-02-18T07:18:32.150Z,5.43
2018-02-18T07:20:59.638Z,5.83
2018-02-18T07:23:27.133Z,5.63
2018-02-18T07:25:54.651Z,6.20
2018-02-18T07:28:22.160Z,5.37
2018-02-18T07:30:49.655Z,5.60
2018-02-18T07:33:17.210Z,5.37
2018-02-18T07:35:44.846Z,5.73
2018-02-18T07:38:12.445Z,6.10
2018-02-18T07:40:40.062Z,6.23
2018-02-18T07:43:08.596Z,5.33
2018-02-18T07:45:37.486Z,6.03
2018-02-18T07:48:06.166Z,5.50
2018-02-18T07:50:33.772Z,6.03
2018-02-18T07:53:09.380Z,5.87
2018-02-18T07:55:37.397Z,5.50
2018-02-18T07:58:04.954Z,5.37
2018-02-18T08:00:34.876Z,4.93
2018-02-18T08:03:03.534Z,5.63
2018-02-18T08:05:31.194Z,4.80
2018-02-18T08:07:58.729Z,4.27
2018-02-18T08:10:26.320Z,4.07
2018-02-18T08:12:53.854Z,4.37
2018-02-18T08:15:21.396Z,3.70
2018-02-18T08:17:49.068Z,3.87
2018-02-18T08:20:16.585Z,3.50
2018-02-18T08:22:44.110Z,3.70
2018-02-18T08:25:11.602Z,3.50
2018-02-18T08:27:39.129Z,3.20
2018-02-18T08:30:08.128Z,3.20
2018-02-18T08:32:35.894Z,3.60
2018-02-18T08:35:03.427Z,3.00
2018-02-18T08:37:30.979Z,3.57
2018-02-18T08:39:58.477Z,3.50
2018-02-18T08:42:26.032Z,3.27
2018-02-18T08:44:54.372Z,2.97
2018-02-18T08:47:21.876Z,3.20
2018-02-18T08:49:49.408Z,2.70
2018-02-18T08:52:17.697Z,2.67
2018-02-18T08:54:45.439Z,2.77
2018-02-18T08:57:14.431Z,2.50
2018-02-18T09:02:14.096Z,2.60
2018-02-18T09:04:41.758Z,3.07
2018-02-18T09:07:13.471Z,3.47
2018-02-18T09:09:42.114Z,4.67
2018-02-18T09:12:09.954Z,3.67
2018-02-18T09:14:37.462Z,3.07
2018-02-18T09:17:05.554Z,3.63
2018-02-18T09:19:33.646Z,2.73
2018-02-18T09:22:01.969Z,2.93
2018-02-18T09:24:29.499Z,3.20
2018-02-18T09:26:57.037Z,3.03
2018-02-18T09:29:24.514Z,3.27
2018-02-18T09:31:52.142Z,3.10
2018-02-18T09:34:19.761Z,3.07
2018-02-18T09:36:47.300Z,3.00
2018-02-18T09:39:14.856Z,2.30
2018-02-18T09:41:42.422Z,2.80
2018-02-18T09:44:10.029Z,2.80
2018-02-18T09:46:37.612Z,2.50
2018-02-18T09:49:05.134Z,2.83
2018-02-18T09:51:32.748Z,1.93
2018-02-18T09:54:00.416Z,2.77
2018-02-18T09:56:27.990Z,2.70
2018-02-18T09:58:55.531Z,2.20
2018-02-18T10:01:25.950Z,2.17
2018-02-18T10:03:53.513Z,2.87
2018-02-18T10:06:21.105Z,2.17
2018-02-18T10:08:49.258Z,2.60
2018-02-18T10:11:19.025Z,2.70
2018-02-18T10:13:46.728Z,2.90
2018-02-18T10:16:14.310Z,2.30
2018-02-18T10:18:41.860Z,2.50
2018-02-18T10:21:10.275Z,2.80
2018-02-18T10:23:37.887Z,2.90
2018-02-18T10:26:05.400Z,2.43
2018-02-18T10:28:32.998Z,3.60
2018-02-18T10:31:00.573Z,2.97
2018-02-18T10:33:28.129Z,2.73
2018-02-18T10:35:55.725Z,2.67
2018-02-18T10:38:23.308Z,2.70
2018-02-18T10:40:50.829Z,3.17
2018-02-18T10:43:18.325Z,2.73
2018-02-18T10:45:45.992Z,4.17
2018-02-18T10:48:13.651Z,2.97
2018-02-18T10:50:41.242Z,2.57
2018-02-18T10:53:08.845Z,3.57
2018-02-18T10:55:36.475Z,2.90
2018-02-18T11:03:57.568Z,3.17
2018-02-18T11:06:26.442Z,3.27
2018-02-18T11:08:54.274Z,3.53
2018-02-18T11:11:21.831Z,3.93
2018-02-18T11:13:49.528Z,3.70
2018-02-18T11:16:17.148Z,3.90
2018-02-18T11:18:44.686Z,3.67
2018-02-18T11:21:12.308Z,3.77
2018-02-18T11:23:39.958Z,3.00
2018-02-18T11:26:07.492Z,3.60
2018-02-18T11:28:35.188Z,3.77
2018-02-18T11:31:03.526Z,3.33
2018-02-18T11:33:31.172Z,3.10
2018-02-18T11:35:59.426Z,3.37
2018-02-18T11:38:26.958Z,3.70
2018-02-18T11:40:55.480Z,3.40
2018-02-18T11:43:23.543Z,3.40
2018-02-18T11:45:51.606Z,4.13
2018-02-18T11:48:19.867Z,4.57
2018-02-18T11:50:49.384Z,4.00
2018-02-18T11:53:18.042Z,3.90
2018-02-18T11:55:45.918Z,3.83
2018-02-18T11:58:14.876Z,3.97
2018-02-18T12:00:43.052Z,4.60
2018-02-18T12:03:11.550Z,4.27
2018-02-18T12:05:39.176Z,4.47
2018-02-18T12:08:07.145Z,4.43
2018-02-18T12:10:36.182Z,4.67
2018-02-18T12:13:04.360Z,4.53
2018-02-18T12:15:32.534Z,5.00
2018-02-18T12:18:00.708Z,4.77
2018-02-18T12:20:28.787Z,4.90
2018-02-18T12:22:56.322Z,5.27
2018-02-18T12:25:24.025Z,4.90
2018-02-18T12:27:53.401Z,4.80
2018-02-18T12:30:21.679Z,4.83
2018-02-18T12:32:52.718Z,5.53
2018-02-18T12:35:20.996Z,4.23
2018-02-18T12:37:48.697Z,5.20
2018-02-18T12:40:17.561Z,5.17
2018-02-18T12:42:46.016Z,5.53
2018-02-18T12:45:15.687Z,4.90
2018-02-18T12:47:43.297Z,4.83
2018-02-18T12:50:10.869Z,4.23
2018-02-18T12:52:38.435Z,5.03
2018-02-18T12:55:05.978Z,4.77
2018-02-18T12:57:33.598Z,5.10
2018-02-18T13:00:01.029Z,4.80
2018-02-18T13:02:28.587Z,5.80
2018-02-18T13:04:56.186Z,5.13
2018-02-18T13:07:23.775Z,5.03
2018-02-18T13:09:51.299Z,5.17
2018-02-18T13:12:18.868Z,5.23
2018-02-18T13:14:46.416Z,4.93
2018-02-18T13:17:14.029Z,5.67
2018-02-18T13:19:41.592Z,5.20
2018-02-18T13:22:09.179Z,5.37
2018-02-18T13:24:36.737Z,4.60
2018-02-18T13:27:04.370Z,4.50
2018-02-18T13:29:32.008Z,4.90
2018-02-18T13:31:59.520Z,4.97
2018-02-18T13:34:27.104Z,5.60
2018-02-18T13:36:54.636Z,5.30
2018-02-18T13:39:22.181Z,5.20
2018-02-18T13:41:49.840Z,5.20
2018-02-18T13:44:17.406Z,5.90
2018-02-18T13:46:44.971Z,4.90
2018-02-18T13:49:12.590Z,6.00
2018-02-18T13:51:40.192Z,5.30
2018-02-18T13:54:07.843Z,6.33
2018-02-18T13:56:35.524Z,6.37
2018-02-18T13:59:03.325Z,5.20
2018-02-18T14:01:31.021Z,5.53
2018-02-18T14:03:58.581Z,5.00
2018-02-18T14:06:26.448Z,5.67
2018-02-18T14:08:55.473Z,5.80
2018-02-18T14:11:23.134Z,6.17
2018-02-18T14:13:50.688Z,5.77
2018-02-18T14:16:18.279Z,6.33
2018-02-18T14:18:46.521Z,6.03
2018-02-18T14:21:14.172Z,5.70
2018-02-18T14:23:41.777Z,6.20
2018-02-18T14:26:09.400Z,6.43
2018-02-18T14:28:36.976Z,6.10
2018-02-18T14:31:04.611Z,5.53
2018-02-18T14:33:32.258Z,5.70
2018-02-18T14:36:00.061Z,5.70
2018-02-18T14:38:27.678Z,6.63
2018-02-18T14:40:55.229Z,6.13
2018-02-18T14:43:34.520Z,6.03
2018-02-18T14:46:13.823Z,11.00
2018-02-18T14:48:53.198Z,5.90
2018-02-18T14:51:32.588Z,6.73
2018-02-18T14:57:23.116Z,8.23
2018-02-18T14:59:50.686Z,7.83
2018-02-18T15:02:18.200Z,6.30
2018-02-18T15:04:45.750Z,7.50
2018-02-18T15:07:13.293Z,6.10
2018-02-18T15:09:40.837Z,6.93
2018-02-18T15:12:08.353Z,6.10
2018-02-18T15:14:35.864Z,7.63
2018-02-18T15:17:03.385Z,5.63
2018-02-18T15:19:30.954Z,5.70
2018-02-18T15:21:58.492Z,5.30
2018-02-18T15:24:25.989Z,6.23
2018-02-18T15:26:53.568Z,6.20
2018-02-18T15:29:21.132Z,6.50
2018-02-18T15:31:48.655Z,7.00
2018-02-18T15:34:16.170Z,7.13
2018-02-18T15:36:44.515Z,6.10
2018-02-18T15:39:12.065Z,6.17
2018-02-18T15:41:39.579Z,6.67
2018-02-18T15:44:07.105Z,6.17
2018-02-18T15:46:34.726Z,6.83
2018-02-18T15:49:02.248Z,6.47
2018-02-18T15:51:29.805Z,7.70
2018-02-18T15:53:57.471Z,6.77
2018-02-18T15:56:25.953Z,6.90
2018-02-18T15:58:53.482Z,7.83
2018-02-18T16:01:20.998Z,7.73
2018-02-18T16:03:48.511Z,7.77
2018-02-18T16:06:16.308Z,7.60
2018-02-18T16:08:44.048Z,7.77
2018-02-18T16:11:12.732Z,7.70
2018-02-18T16:13:40.278Z,7.47
2018-02-18T16:16:07.811Z,7.97
2018-02-18T16:18:35.358Z,8.73
2018-02-18T16:21:03.142Z,9.23
2018-02-18T16:23:30.851Z,9.27
2018-02-18T16:25:58.466Z,9.93
2018-02-18T16:28:26.246Z,9.73
2018-02-18T16:30:54.083Z,9.57
2018-02-18T16:33:21.712Z,8.37
2018-02-18T16:35:49.268Z,8.93
2018-02-18T16:38:16.979Z,9.80
2018-02-18T16:40:44.599Z,11.50
2018-02-18T16:43:12.230Z,11.23
2018-02-18T16:45:39.862Z,10.87
2018-02-18T16:48:07.431Z,11.23
2018-02-18T16:50:35.016Z,12.37
2018-02-18T16:53:02.713Z,11.57
2018-02-18T16:55:30.272Z,12.03
2018-02-18T16:57:59.316Z,11.23
2018-02-18T17:00:27.072Z,13.00
2018-02-18T17:02:56.474Z,10.27
2018-02-18T17:05:24.028Z,11.07
2018-02-18T17:10:40.920Z,11.03
2018-02-18T17:13:18.391Z,12.10
2018-02-18T17:15:46.150Z,12.30
2018-02-18T17:18:13.843Z,12.73
2018-02-18T17:20:42.735Z,12.63
2018-02-18T17:23:10.431Z,13.43
2018-02-18T17:25:38.005Z,14.40
2018-02-18T17:30:41.786Z,14.03
2018-02-18T17:33:13.619Z,13.93
2018-02-18T17:35:41.340Z,13.73
2018-02-18T17:38:08.937Z,14.40
2018-02-18T17:40:36.572Z,15.30
2018-02-18T17:43:04.167Z,14.03
2018-02-18T17:45:31.709Z,14.67
2018-02-18T17:47:59.219Z,15.43
2018-02-18T17:50:26.737Z,15.13
2018-02-18T17:52:54.310Z,14.40
2018-02-18T17:55:22.023Z,15.27
2018-02-18T17:57:49.606Z,16.27
2018-02-18T18:00:17.236Z,16.17
2018-02-18T18:02:44.807Z,16.80
2018-02-18T18:05:12.581Z,16.67
2018-02-18T18:07:40.261Z,18.57
2018-02-18T18:10:07.965Z,18.33
2018-02-18T18:12:35.508Z,18.77
2018-02-18T18:15:03.057Z,19.17
2018-02-18T18:17:30.665Z,18.33
2018-02-18T18:19:58.246Z,18.90
2018-02-18T18:22:25.793Z,19.10
2018-02-18T18:24:53.402Z,19.03
2018-02-18T18:27:21.160Z,18.70
2018-02-18T18:29:48.912Z,18.70
2018-02-18T18:32:16.520Z,18.63
2018-02-18T18:34:44.139Z,19.17
2018-02-18T18:37:11.700Z,18.13
2018-02-18T18:39:39.294Z,19.00
2018-02-18T18:42:06.864Z,18.30
2018-02-18T18:44:34.575Z,17.57
2018-02-18T18:47:02.350Z,17.77
2018-02-18T18:49:29.861Z,17.37
2018-02-18T18:51:57.462Z,17.63
2018-02-18T18:54:24.998Z,17.57
2018-02-18T18:56:52.682Z,17.70
2018-02-18T18:59:20.238Z,17.80
2018-02-18T19:01:47.821Z,16.70
2018-02-18T19:04:16.306Z,16.90
2018-02-18T19:06:43.924Z,15.60
2018-02-18T19:09:11.490Z,16.13
2018-02-18T19:11:39.038Z,17.37
2018-02-18T19:14:06.567Z,16.40
2018-02-18T19:16:34.086Z,17.37
2018-02-18T19:19:01.755Z,17.17
2018-02-18T19:21:29.316Z,17.23
2018-02-18T19:23:56.823Z,16.40
2018-02-18T19:26:24.447Z,15.03
2018-02-18T19:28:52.070Z,16.70
2018-02-18T19:31:19.611Z,16.70
2018-02-18T19:33:47.147Z,16.90
2018-02-18T19:36:14.673Z,16.47
2018-02-18T19:38:42.223Z,15.63
2018-02-18T19:41:09.785Z,17.23
2018-02-18T19:43:37.365Z,17.80
2018-02-18T19:46:05.352Z,17.13
2018-02-18T19:48:32.924Z,16.93
2018-02-18T19:51:00.447Z,18.40
2018-02-18T19:53:27.992Z,17.10
2018-02-18T19:55:55.531Z,18.03
2018-02-18T19:58:23.102Z,17.67
2018-02-18T20:00:50.690Z,16.07
2018-02-18T20:03:18.242Z,16.40
2018-02-18T20:05:45.796Z,16.47
2018-02-18T20:08:13.320Z,16.17
2018-02-18T20:13:33.472Z,16.00
2018-02-18T20:16:01.111Z,16.90
2018-02-18T20:18:28.710Z,15.07
2018-02-18T20:20:56.345Z,18.43
2018-02-18T20:23:23.902Z,16.53
2018-02-18T20:25:51.439Z,15.43
2018-02-18T20:28:18.988Z,16.80
2018-02-18T20:30:46.536Z,17.17
2018-02-18T20:33:14.048Z,16.70
2018-02-18T20:35:41.587Z,16.50
2018-02-18T20:38:09.173Z,17.73
2018-02-18T20:40:36.789Z,17.13
2018-02-18T20:43:04.352Z,17.73
2018-02-18T20:45:31.880Z,16.87
2018-02-18T20:47:59.491Z,18.13
2018-02-18T20:50:26.989Z,18.70
2018-02-18T20:52:54.521Z,17.10
2018-02-18T20:55:22.645Z,17.50
2018-02-18T20:57:50.168Z,18.27
2018-02-18T21:00:17.928Z,17.47
2018-02-18T21:02:45.497Z,17.50
2018-02-18T21:05:13.093Z,17.57
2018-02-18T21:07:40.939Z,17.03
2018-02-18T21:10:08.652Z,17.87
2018-02-18T21:12:36.253Z,17.57
2018-02-18T21:15:04.089Z,15.77
2018-02-18T21:17:31.616Z,18.13
2018-02-18T21:19:59.280Z,16.87
2018-02-18T21:22:38.286Z,17.87
2018-02-18T21:25:06.416Z,18.53
2018-02-18T21:27:48.481Z,17.67
2018-02-18T21:30:18.282Z,18.13
2018-02-18T21:32:49.218Z,17.20
2018-02-18T21:35:17.564Z,17.80
2018-02-18T21:37:45.194Z,17.70
2018-02-18T21:40:12.736Z,17.93
2018-02-18T21:42:40.340Z,18.30
2018-02-18T21:45:07.961Z,16.97
2018-02-18T21:47:37.486Z,17.37
2018-02-18T21:50:05.015Z,18.07
2018-02-18T21:52:32.601Z,16.67
2018-02-18T21:55:00.133Z,17.67
2018-02-18T21:57:27.662Z,18.33
2018-02-18T21:59:55.295Z,16.13
2018-02-18T22:02:22.866Z,17.37
2018-02-18T22:04:50.487Z,17.73
2018-02-18T22:07:18.028Z,17.07
2018-02-18T22:09:45.574Z,17.83
2018-02-18T22:12:13.205Z,16.63
2018-02-18T22:14:40.747Z,16.70
2018-02-18T22:17:08.302Z,17.97
2018-02-18T22:19:35.859Z,17.00
2018-02-18T22:22:03.519Z,16.43
2018-02-18T22:24:31.015Z,16.60
2018-02-18T22:26:58.553Z,17.27
2018-02-18T22:29:26.090Z,16.03
2018-02-18T22:31:53.671Z,16.27
2018-02-18T22:34:21.231Z,17.10
2018-02-18T22:36:48.761Z,17.90
2018-02-18T22:39:16.327Z,16.87
2018-02-18T22:41:43.873Z,17.47
2018-02-18T22:44:11.425Z,17.57
2018-02-18T22:46:38.957Z,17.07
2018-02-18T22:49:06.489Z,17.63
2018-02-18T22:51:34.105Z,16.30
2018-02-18T22:54:01.699Z,17.77
2018-02-18T22:56:30.220Z,16.97
2018-02-18T22:58:57.799Z,18.13
2018-02-18T23:01:25.368Z,17.73
2018-02-18T23:03:53.004Z,18.00
2018-02-18T23:06:20.567Z,16.27
2018-02-18T23:08:48.127Z,18.50
2018-02-18T23:11:15.733Z,17.23
2018-02-18T23:13:43.253Z,17.10
2018-02-18T23:16:10.760Z,16.30
2018-02-18T23:18:38.333Z,15.93
2018-02-18T23:21:09.379Z,16.20
2018-02-18T23:23:36.980Z,15.53
2018-02-18T23:26:04.533Z,16.07
2018-02-18T23:28:32.043Z,16.20
2018-02-18T23:30:59.561Z,16.30
2018-02-18T23:33:27.107Z,17.43
2018-02-18T23:35:54.623Z,17.67
2018-02-18T23:38:22.175Z,14.87
2018-02-18T23:40:49.692Z,15.93
2018-02-18T23:43:17.233Z,16.13
2018-02-18T23:45:44.785Z,17.00
2018-02-18T23:48:12.344Z,15.50
2018-02-18T23:50:39.966Z,15.47
2018-02-18T23:53:07.527Z,15.50
2018-02-18T23:55:35.089Z,16.30
2018-02-18T23:58:02.919Z,16.80
